sensor_id;sensor_type;location;lat;lon;timestamp;pressure;altitude;pressure_sealevel;temperature;humidity
46944;BME280;32678;43.852;25.952;2023-03-07T00:02:38;100452.94;;;9.45;48.41
46944;BME280;32678;43.852;25.952;2023-03-07T00:07:36;100458.38;;;9.65;47.36
46944;BME280;32678;43.852;25.952;2023-03-07T00:12:32;100435.78;;;8.82;49.48
46944;BME280;32678;43.852;25.952;2023-03-07T00:17:29;100441.09;;;9.08;48.89
46944;BME280;32678;43.852;25.952;2023-03-07T00:22:26;100432.19;;;8.86;49.73
46944;BME280;32678;43.852;25.952;2023-03-07T00:27:23;100433.38;;;9.04;49.44
46944;BME280;32678;43.852;25.952;2023-03-07T00:32:20;100433.84;;;9.17;50.33
46944;BME280;32678;43.852;25.952;2023-03-07T00:37:17;100433.72;;;8.93;52.45
46944;BME280;32678;43.852;25.952;2023-03-07T00:42:14;100419.31;;;8.51;54.00
46944;BME280;32678;43.852;25.952;2023-03-07T00:47:11;100402.03;;;8.47;54.47
46944;BME280;32678;43.852;25.952;2023-03-07T00:52:09;100392.16;;;8.56;54.74
46944;BME280;32678;43.852;25.952;2023-03-07T00:57:06;100392.97;;;8.86;54.26
46944;BME280;32678;43.852;25.952;2023-03-07T01:02:05;100393.47;;;9.24;54.14
46944;BME280;32678;43.852;25.952;2023-03-07T01:07:02;100386.03;;;9.38;53.47
46944;BME280;32678;43.852;25.952;2023-03-07T01:11:59;100365.28;;;9.33;53.37
46944;BME280;32678;43.852;25.952;2023-03-07T01:16:57;100366.63;;;9.43;53.09
46944;BME280;32678;43.852;25.952;2023-03-07T01:21:54;100367.78;;;8.84;52.30
46944;BME280;32678;43.852;25.952;2023-03-07T01:26:52;100367.56;;;8.05;54.92
46944;BME280;32678;43.852;25.952;2023-03-07T01:31:51;100362.63;;;7.94;56.91
46944;BME280;32678;43.852;25.952;2023-03-07T01:36:49;100355.94;;;7.53;57.88
46944;BME280;32678;43.852;25.952;2023-03-07T01:41:46;100341.69;;;7.34;59.03
46944;BME280;32678;43.852;25.952;2023-03-07T01:46:48;100340.03;;;7.31;58.21
46944;BME280;32678;43.852;25.952;2023-03-07T01:51:47;100340.44;;;7.15;59.27
46944;BME280;32678;43.852;25.952;2023-03-07T01:56:44;100322.81;;;7.24;59.31
46944;BME280;32678;43.852;25.952;2023-03-07T02:01:45;100307.72;;;7.37;56.44
46944;BME280;32678;43.852;25.952;2023-03-07T02:06:45;100303.09;;;7.47;56.33
46944;BME280;32678;43.852;25.952;2023-03-07T02:11:42;100303.13;;;7.45;57.52
46944;BME280;32678;43.852;25.952;2023-03-07T02:16:40;100306.38;;;7.84;57.07
46944;BME280;32678;43.852;25.952;2023-03-07T02:21:38;100325.09;;;7.98;56.63
46944;BME280;32678;43.852;25.952;2023-03-07T02:26:41;100335.84;;;8.17;57.76
46944;BME280;32678;43.852;25.952;2023-03-07T02:31:39;100342.22;;;8.08;57.69
46944;BME280;32678;43.852;25.952;2023-03-07T02:36:39;100339.84;;;8.01;57.22
46944;BME280;32678;43.852;25.952;2023-03-07T02:41:47;100352.94;;;8.28;57.19
46944;BME280;32678;43.852;25.952;2023-03-07T02:46:54;100350.59;;;8.49;57.42
46944;BME280;32678;43.852;25.952;2023-03-07T02:51:55;100337.75;;;8.41;57.83
46944;BME280;32678;43.852;25.952;2023-03-07T02:56:57;100333.63;;;7.74;58.04
46944;BME280;32678;43.852;25.952;2023-03-07T03:01:54;100335.38;;;7.09;59.77
46944;BME280;32678;43.852;25.952;2023-03-07T03:06:51;100334.19;;;7.22;60.96
46944;BME280;32678;43.852;25.952;2023-03-07T03:11:51;100327.91;;;7.61;61.20
46944;BME280;32678;43.852;25.952;2023-03-07T03:16:52;100318.16;;;7.97;61.25
46944;BME280;32678;43.852;25.952;2023-03-07T03:21:49;100323.34;;;7.99;58.06
46944;BME280;32678;43.852;25.952;2023-03-07T03:26:46;100325.03;;;7.39;60.54
46944;BME280;32678;43.852;25.952;2023-03-07T03:31:46;100324.34;;;7.33;60.87
46944;BME280;32678;43.852;25.952;2023-03-07T03:36:43;100308.06;;;7.23;63.90
46944;BME280;32678;43.852;25.952;2023-03-07T03:41:40;100321.34;;;7.14;65.18
46944;BME280;32678;43.852;25.952;2023-03-07T03:46:39;100327.38;;;7.16;65.30
46944;BME280;32678;43.852;25.952;2023-03-07T03:51:36;100324.34;;;7.33;66.08
46944;BME280;32678;43.852;25.952;2023-03-07T03:56:34;100327.03;;;7.28;62.87
46944;BME280;32678;43.852;25.952;2023-03-07T04:01:31;100330.38;;;7.33;61.60
46944;BME280;32678;43.852;25.952;2023-03-07T04:06:29;100328.00;;;7.26;63.43
46944;BME280;32678;43.852;25.952;2023-03-07T04:11:27;100330.25;;;7.70;63.07
46944;BME280;32678;43.852;25.952;2023-03-07T04:16:24;100326.84;;;7.98;63.43
46944;BME280;32678;43.852;25.952;2023-03-07T04:21:21;100356.13;;;8.09;62.90
46944;BME280;32678;43.852;25.952;2023-03-07T04:26:22;100365.25;;;8.23;62.53
46944;BME280;32678;43.852;25.952;2023-03-07T04:31:22;100371.81;;;8.38;61.40
46944;BME280;32678;43.852;25.952;2023-03-07T04:36:21;100359.53;;;7.49;63.83
46944;BME280;32678;43.852;25.952;2023-03-07T04:41:20;100358.78;;;7.46;63.09
46944;BME280;32678;43.852;25.952;2023-03-07T04:46:22;100350.47;;;6.96;64.08
46944;BME280;32678;43.852;25.952;2023-03-07T04:51:19;100350.63;;;6.90;64.33
46944;BME280;32678;43.852;25.952;2023-03-07T04:56:18;100362.53;;;7.00;64.08
46944;BME280;32678;43.852;25.952;2023-03-07T05:01:16;100368.44;;;7.08;66.29
46944;BME280;32678;43.852;25.952;2023-03-07T05:06:13;100361.97;;;6.89;67.46
46944;BME280;32678;43.852;25.952;2023-03-07T05:11:15;100364.50;;;7.26;65.72
46944;BME280;32678;43.852;25.952;2023-03-07T05:16:12;100348.88;;;7.24;64.06
46944;BME280;32678;43.852;25.952;2023-03-07T05:21:09;100355.34;;;7.44;63.01
46944;BME280;32678;43.852;25.952;2023-03-07T05:26:07;100351.19;;;7.36;63.49
46944;BME280;32678;43.852;25.952;2023-03-07T05:31:05;100356.88;;;7.52;63.67
46944;BME280;32678;43.852;25.952;2023-03-07T05:36:02;100356.03;;;7.50;63.64
46944;BME280;32678;43.852;25.952;2023-03-07T05:41:01;100357.28;;;7.68;62.91
46944;BME280;32678;43.852;25.952;2023-03-07T05:45:58;100366.16;;;7.93;62.23
46944;BME280;32678;43.852;25.952;2023-03-07T05:50:58;100361.28;;;7.81;62.47
46944;BME280;32678;43.852;25.952;2023-03-07T05:55:55;100368.88;;;7.89;62.66
46944;BME280;32678;43.852;25.952;2023-03-07T06:00:52;100378.28;;;8.25;62.30
46944;BME280;32678;43.852;25.952;2023-03-07T06:05:50;100377.59;;;8.18;62.32
46944;BME280;32678;43.852;25.952;2023-03-07T06:10:48;100380.22;;;8.48;62.15
46944;BME280;32678;43.852;25.952;2023-03-07T06:15:47;100379.00;;;8.01;64.23
46944;BME280;32678;43.852;25.952;2023-03-07T06:20:52;100388.19;;;7.83;65.55
46944;BME280;32678;43.852;25.952;2023-03-07T06:25:50;100375.41;;;8.05;65.18
46944;BME280;32678;43.852;25.952;2023-03-07T06:30:47;100390.75;;;8.15;65.03
46944;BME280;32678;43.852;25.952;2023-03-07T06:35:45;100404.22;;;8.31;63.29
46944;BME280;32678;43.852;25.952;2023-03-07T06:40:42;100390.50;;;8.24;63.02
46944;BME280;32678;43.852;25.952;2023-03-07T06:45:41;100383.88;;;8.11;63.90
46944;BME280;32678;43.852;25.952;2023-03-07T06:50:42;100403.03;;;8.43;63.63
46944;BME280;32678;43.852;25.952;2023-03-07T06:55:42;100405.41;;;8.50;64.54
46944;BME280;32678;43.852;25.952;2023-03-07T07:00:44;100411.13;;;8.91;63.82
46944;BME280;32678;43.852;25.952;2023-03-07T07:05:47;100412.06;;;9.16;63.67
46944;BME280;32678;43.852;25.952;2023-03-07T07:12:20;100420.34;;;9.29;63.38
46944;BME280;32678;43.852;25.952;2023-03-07T08:00:46;100408.16;;;10.73;57.52
46944;BME280;32678;43.852;25.952;2023-03-07T09:09:32;100400.59;;;13.57;49.78
46944;BME280;32678;43.852;25.952;2023-03-07T09:38:50;100393.59;;;14.23;48.66
46944;BME280;32678;43.852;25.952;2023-03-07T09:43:50;100395.19;;;14.43;47.52
46944;BME280;32678;43.852;25.952;2023-03-07T09:49:21;100392.28;;;14.15;46.26
46944;BME280;32678;43.852;25.952;2023-03-07T09:54:30;100387.94;;;14.47;45.86
46944;BME280;32678;43.852;25.952;2023-03-07T09:59:32;100377.59;;;14.59;45.65
46944;BME280;32678;43.852;25.952;2023-03-07T10:04:34;100367.38;;;14.85;44.60
46944;BME280;32678;43.852;25.952;2023-03-07T10:09:37;100352.97;;;14.43;45.04
46944;BME280;32678;43.852;25.952;2023-03-07T10:14:46;100363.88;;;14.84;43.70
46944;BME280;32678;43.852;25.952;2023-03-07T10:19:50;100357.22;;;14.61;44.75
46944;BME280;32678;43.852;25.952;2023-03-07T10:24:54;100355.88;;;14.70;43.71
46944;BME280;32678;43.852;25.952;2023-03-07T10:29:54;100354.25;;;14.67;43.76
46944;BME280;32678;43.852;25.952;2023-03-07T10:34:56;100338.91;;;14.90;43.38
46944;BME280;32678;43.852;25.952;2023-03-07T10:39:55;100340.84;;;14.86;43.97
46944;BME280;32678;43.852;25.952;2023-03-07T10:44:52;100339.44;;;14.81;43.87
46944;BME280;32678;43.852;25.952;2023-03-07T10:49:50;100334.66;;;14.87;43.34
46944;BME280;32678;43.852;25.952;2023-03-07T10:54:48;100314.06;;;14.78;43.85
46944;BME280;32678;43.852;25.952;2023-03-07T10:59:46;100322.16;;;15.35;42.71
46944;BME280;32678;43.852;25.952;2023-03-07T11:04:45;100313.41;;;15.34;43.52
46944;BME280;32678;43.852;25.952;2023-03-07T11:09:45;100303.81;;;15.47;43.02
46944;BME280;32678;43.852;25.952;2023-03-07T11:14:45;100298.19;;;15.82;41.51
46944;BME280;32678;43.852;25.952;2023-03-07T11:19:44;100300.25;;;15.91;41.71
46944;BME280;32678;43.852;25.952;2023-03-07T11:24:45;100297.81;;;15.88;41.84
46944;BME280;32678;43.852;25.952;2023-03-07T11:29:45;100284.59;;;16.02;41.17
46944;BME280;32678;43.852;25.952;2023-03-07T11:35:12;100275.25;;;15.96;40.67
46944;BME280;32678;43.852;25.952;2023-03-07T11:40:18;100272.03;;;16.32;39.65
46944;BME280;32678;43.852;25.952;2023-03-07T11:45:30;100255.34;;;16.18;39.54
46944;BME280;32678;43.852;25.952;2023-03-07T11:50:30;100261.63;;;15.88;40.55
46944;BME280;32678;43.852;25.952;2023-03-07T11:55:30;100250.88;;;15.91;38.86
46944;BME280;32678;43.852;25.952;2023-03-07T12:00:32;100251.88;;;16.17;38.50
46944;BME280;32678;43.852;25.952;2023-03-07T12:05:35;100239.09;;;16.24;38.52
46944;BME280;32678;43.852;25.952;2023-03-07T12:10:41;100243.31;;;16.40;38.79
46944;BME280;32678;43.852;25.952;2023-03-07T12:15:44;100236.41;;;16.11;39.48
46944;BME280;32678;43.852;25.952;2023-03-07T12:20:45;100230.00;;;16.28;38.88
46944;BME280;32678;43.852;25.952;2023-03-07T12:25:45;100225.47;;;16.30;38.32
46944;BME280;32678;43.852;25.952;2023-03-07T12:30:50;100228.59;;;16.36;37.97
46944;BME280;32678;43.852;25.952;2023-03-07T12:35:51;100218.16;;;16.21;39.35
46944;BME280;32678;43.852;25.952;2023-03-07T12:40:55;100218.44;;;16.16;38.87
46944;BME280;32678;43.852;25.952;2023-03-07T12:45:56;100213.16;;;16.16;38.46
46944;BME280;32678;43.852;25.952;2023-03-07T12:50:57;100203.25;;;16.06;37.28
46944;BME280;32678;43.852;25.952;2023-03-07T12:55:57;100209.19;;;16.09;37.61
46944;BME280;32678;43.852;25.952;2023-03-07T13:00:57;100197.69;;;16.37;36.43
46944;BME280;32678;43.852;25.952;2023-03-07T13:05:59;100202.50;;;16.57;36.30
46944;BME280;32678;43.852;25.952;2023-03-07T13:11:00;100191.09;;;16.30;36.87
46944;BME280;32678;43.852;25.952;2023-03-07T13:16:01;100198.22;;;16.42;36.52
46944;BME280;32678;43.852;25.952;2023-03-07T13:21:16;100189.63;;;16.38;37.10
46944;BME280;32678;43.852;25.952;2023-03-07T13:26:40;100190.75;;;16.22;37.60
46944;BME280;32678;43.852;25.952;2023-03-07T13:31:43;100201.72;;;16.42;36.80
46944;BME280;32678;43.852;25.952;2023-03-07T13:36:40;100191.50;;;16.90;36.04
46944;BME280;32678;43.852;25.952;2023-03-07T13:41:47;100195.94;;;16.50;37.21
46944;BME280;32678;43.852;25.952;2023-03-07T13:46:50;100198.03;;;16.45;37.76
46944;BME280;32678;43.852;25.952;2023-03-07T13:57:15;100196.34;;;16.17;38.33
46944;BME280;32678;43.852;25.952;2023-03-07T14:02:16;100194.53;;;16.18;39.07
46944;BME280;32678;43.852;25.952;2023-03-07T14:07:14;100190.63;;;16.23;38.86
46944;BME280;32678;43.852;25.952;2023-03-07T14:12:19;100197.94;;;16.20;38.82
46944;BME280;32678;43.852;25.952;2023-03-07T14:17:29;100193.88;;;16.14;38.91
46944;BME280;32678;43.852;25.952;2023-03-07T14:22:36;100191.84;;;16.32;38.78
46944;BME280;32678;43.852;25.952;2023-03-07T14:27:47;100199.97;;;16.29;38.76
46944;BME280;32678;43.852;25.952;2023-03-07T14:32:46;100189.28;;;16.30;38.34
46944;BME280;32678;43.852;25.952;2023-03-07T14:37:44;100178.38;;;16.22;38.48
46944;BME280;32678;43.852;25.952;2023-03-07T14:42:43;100194.44;;;16.19;38.98
46944;BME280;32678;43.852;25.952;2023-03-07T14:47:48;100181.56;;;16.00;39.71
46944;BME280;32678;43.852;25.952;2023-03-07T14:52:50;100188.69;;;16.13;39.95
46944;BME280;32678;43.852;25.952;2023-03-07T14:57:48;100184.38;;;16.12;40.49
46944;BME280;32678;43.852;25.952;2023-03-07T15:02:52;100179.38;;;16.07;40.50
46944;BME280;32678;43.852;25.952;2023-03-07T15:07:49;100175.03;;;16.06;40.33
46944;BME280;32678;43.852;25.952;2023-03-07T15:12:47;100177.97;;;16.01;40.63
46944;BME280;32678;43.852;25.952;2023-03-07T15:17:45;100178.16;;;15.98;41.10
46944;BME280;32678;43.852;25.952;2023-03-07T15:22:43;100183.00;;;15.92;41.44
46944;BME280;32678;43.852;25.952;2023-03-07T15:27:42;100182.53;;;15.85;41.67
46944;BME280;32678;43.852;25.952;2023-03-07T15:32:39;100174.03;;;15.80;41.95
46944;BME280;32678;43.852;25.952;2023-03-07T15:37:50;100179.53;;;15.77;41.98
46944;BME280;32678;43.852;25.952;2023-03-07T15:42:49;100175.47;;;15.72;42.24
46944;BME280;32678;43.852;25.952;2023-03-07T15:47:47;100173.22;;;15.66;42.40
46944;BME280;32678;43.852;25.952;2023-03-07T15:52:49;100176.91;;;15.63;42.58
46944;BME280;32678;43.852;25.952;2023-03-07T15:57:48;100179.00;;;15.58;42.63
46944;BME280;32678;43.852;25.952;2023-03-07T16:02:45;100192.59;;;15.52;42.70
46944;BME280;32678;43.852;25.952;2023-03-07T16:07:44;100193.84;;;15.45;42.74
46944;BME280;32678;43.852;25.952;2023-03-07T16:12:41;100201.22;;;15.40;42.70
46944;BME280;32678;43.852;25.952;2023-03-07T16:17:41;100200.66;;;15.35;42.80
46944;BME280;32678;43.852;25.952;2023-03-07T16:22:38;100214.91;;;15.32;43.02
46944;BME280;32678;43.852;25.952;2023-03-07T16:27:35;100219.34;;;15.32;42.82
46944;BME280;32678;43.852;25.952;2023-03-07T16:32:32;100221.41;;;15.27;42.75
46944;BME280;32678;43.852;25.952;2023-03-07T16:37:34;100220.38;;;15.29;42.91
46944;BME280;32678;43.852;25.952;2023-03-07T16:42:32;100226.41;;;15.31;42.98
46944;BME280;32678;43.852;25.952;2023-03-07T16:47:29;100224.63;;;15.32;43.09
46944;BME280;32678;43.852;25.952;2023-03-07T16:52:26;100230.00;;;15.30;43.12
46944;BME280;32678;43.852;25.952;2023-03-07T16:57:26;100237.91;;;15.30;43.17
46944;BME280;32678;43.852;25.952;2023-03-07T17:02:23;100230.75;;;15.32;43.23
46944;BME280;32678;43.852;25.952;2023-03-07T17:07:21;100239.44;;;15.34;43.33
46944;BME280;32678;43.852;25.952;2023-03-07T17:12:19;100238.41;;;15.37;43.32
46944;BME280;32678;43.852;25.952;2023-03-07T17:17:19;100240.28;;;15.35;43.38
46944;BME280;32678;43.852;25.952;2023-03-07T17:22:17;100242.19;;;15.33;43.56
46944;BME280;32678;43.852;25.952;2023-03-07T17:27:17;100246.69;;;15.31;43.65
46944;BME280;32678;43.852;25.952;2023-03-07T17:32:14;100230.75;;;15.18;43.74
46944;BME280;32678;43.852;25.952;2023-03-07T17:37:12;100257.53;;;15.26;43.68
46944;BME280;32678;43.852;25.952;2023-03-07T17:42:08;100255.81;;;15.25;43.97
46944;BME280;32678;43.852;25.952;2023-03-07T17:47:05;100261.97;;;15.26;43.78
46944;BME280;32678;43.852;25.952;2023-03-07T17:52:03;100263.00;;;15.23;43.88
46944;BME280;32678;43.852;25.952;2023-03-07T17:57:02;100265.81;;;15.20;44.00
46944;BME280;32678;43.852;25.952;2023-03-07T18:02:02;100262.44;;;15.18;44.14
46944;BME280;32678;43.852;25.952;2023-03-07T18:07:00;100263.38;;;15.17;44.06
46944;BME280;32678;43.852;25.952;2023-03-07T18:11:57;100266.09;;;15.15;44.11
46944;BME280;32678;43.852;25.952;2023-03-07T18:16:54;100266.19;;;15.14;44.36
46944;BME280;32678;43.852;25.952;2023-03-07T18:21:51;100268.94;;;15.12;44.29
46944;BME280;32678;43.852;25.952;2023-03-07T18:26:48;100267.34;;;15.10;44.14
46944;BME280;32678;43.852;25.952;2023-03-07T18:31:45;100264.56;;;15.11;44.14
46944;BME280;32678;43.852;25.952;2023-03-07T18:36:42;100266.09;;;15.15;44.32
46944;BME280;32678;43.852;25.952;2023-03-07T18:41:39;100262.72;;;15.13;45.44
46944;BME280;32678;43.852;25.952;2023-03-07T18:46:36;100262.19;;;14.93;46.83
46944;BME280;32678;43.852;25.952;2023-03-07T18:51:33;100264.03;;;14.91;45.75
46944;BME280;32678;43.852;25.952;2023-03-07T18:56:36;100267.09;;;14.99;45.31
46944;BME280;32678;43.852;25.952;2023-03-07T19:01:33;100266.84;;;15.03;45.23
46944;BME280;32678;43.852;25.952;2023-03-07T19:06:32;100273.81;;;15.04;45.47
46944;BME280;32678;43.852;25.952;2023-03-07T19:11:30;100275.88;;;14.99;45.95
46944;BME280;32678;43.852;25.952;2023-03-07T19:16:27;100277.44;;;14.88;46.14
46944;BME280;32678;43.852;25.952;2023-03-07T19:21:24;100274.03;;;14.86;45.90
46944;BME280;32678;43.852;25.952;2023-03-07T19:26:21;100269.28;;;14.77;45.82
46944;BME280;32678;43.852;25.952;2023-03-07T19:31:19;100269.50;;;14.88;45.69
46944;BME280;32678;43.852;25.952;2023-03-07T19:36:20;100268.66;;;14.87;45.62
46944;BME280;32678;43.852;25.952;2023-03-07T19:41:17;100258.06;;;14.73;45.23
46944;BME280;32678;43.852;25.952;2023-03-07T19:46:15;100268.69;;;14.71;44.77
46944;BME280;32678;43.852;25.952;2023-03-07T19:51:15;100261.91;;;14.67;45.04
46944;BME280;32678;43.852;25.952;2023-03-07T19:56:14;100263.16;;;14.76;44.79
46944;BME280;32678;43.852;25.952;2023-03-07T20:01:11;100262.38;;;14.90;44.13
46944;BME280;32678;43.852;25.952;2023-03-07T20:06:10;100266.56;;;14.78;44.05
46944;BME280;32678;43.852;25.952;2023-03-07T20:11:10;100272.63;;;14.80;43.85
46944;BME280;32678;43.852;25.952;2023-03-07T20:16:08;100285.00;;;14.48;44.52
46944;BME280;32678;43.852;25.952;2023-03-07T20:21:06;100287.88;;;14.59;44.31
46944;BME280;32678;43.852;25.952;2023-03-07T20:26:04;100298.06;;;14.34;46.06
46944;BME280;32678;43.852;25.952;2023-03-07T20:31:01;100297.53;;;14.27;48.09
46944;BME280;32678;43.852;25.952;2023-03-07T20:36:00;100275.81;;;14.40;48.65
46944;BME280;32678;43.852;25.952;2023-03-07T20:40:59;100275.75;;;14.41;50.11
46944;BME280;32678;43.852;25.952;2023-03-07T20:46:00;100285.19;;;14.45;50.89
46944;BME280;32678;43.852;25.952;2023-03-07T20:51:02;100285.06;;;14.47;50.89
46944;BME280;32678;43.852;25.952;2023-03-07T20:56:00;100283.97;;;14.51;50.16
46944;BME280;32678;43.852;25.952;2023-03-07T21:00:59;100294.19;;;14.41;50.00
46944;BME280;32678;43.852;25.952;2023-03-07T21:05:58;100293.72;;;14.33;51.21
46944;BME280;32678;43.852;25.952;2023-03-07T21:10:59;100295.69;;;14.14;52.38
46944;BME280;32678;43.852;25.952;2023-03-07T21:15:57;100303.09;;;14.07;53.61
46944;BME280;32678;43.852;25.952;2023-03-07T21:20:56;100289.38;;;14.01;54.64
46944;BME280;32678;43.852;25.952;2023-03-07T21:26:00;100294.34;;;13.74;56.37
46944;BME280;32678;43.852;25.952;2023-03-07T21:30:59;100296.38;;;13.69;56.57
46944;BME280;32678;43.852;25.952;2023-03-07T21:35:56;100287.59;;;13.68;57.46
46944;BME280;32678;43.852;25.952;2023-03-07T21:40:53;100284.16;;;13.51;57.12
46944;BME280;32678;43.852;25.952;2023-03-07T21:45:50;100271.34;;;13.77;55.83
46944;BME280;32678;43.852;25.952;2023-03-07T21:50:48;100246.50;;;13.33;52.66
46944;BME280;32678;43.852;25.952;2023-03-07T21:55:49;100258.38;;;13.57;51.52
46944;BME280;32678;43.852;25.952;2023-03-07T22:00:46;100252.19;;;13.74;51.01
46944;BME280;32678;43.852;25.952;2023-03-07T22:05:44;100251.06;;;13.62;51.21
46944;BME280;32678;43.852;25.952;2023-03-07T22:10:43;100252.63;;;13.82;50.91
46944;BME280;32678;43.852;25.952;2023-03-07T22:15:40;100249.13;;;13.66;50.76
46944;BME280;32678;43.852;25.952;2023-03-07T22:20:39;100251.34;;;13.89;49.49
46944;BME280;32678;43.852;25.952;2023-03-07T22:25:37;100255.00;;;13.71;52.55
46944;BME280;32678;43.852;25.952;2023-03-07T22:30:33;100248.81;;;13.87;48.90
46944;BME280;32678;43.852;25.952;2023-03-07T22:35:30;100248.69;;;13.73;47.59
46944;BME280;32678;43.852;25.952;2023-03-07T22:40:26;100250.72;;;13.53;47.91
46944;BME280;32678;43.852;25.952;2023-03-07T22:45:24;100252.31;;;13.55;47.09
46944;BME280;32678;43.852;25.952;2023-03-07T22:50:20;100251.41;;;13.56;46.71
46944;BME280;32678;43.852;25.952;2023-03-07T22:55:17;100261.03;;;13.40;47.08
46944;BME280;32678;43.852;25.952;2023-03-07T23:00:14;100260.28;;;13.54;50.60
46944;BME280;32678;43.852;25.952;2023-03-07T23:05:11;100261.69;;;13.61;51.42
46944;BME280;32678;43.852;25.952;2023-03-07T23:10:09;100252.28;;;13.72;47.49
46944;BME280;32678;43.852;25.952;2023-03-07T23:15:06;100259.47;;;13.69;45.94
46944;BME280;32678;43.852;25.952;2023-03-07T23:20:03;100269.25;;;13.34;50.52
46944;BME280;32678;43.852;25.952;2023-03-07T23:25:00;100253.91;;;13.25;51.66
46944;BME280;32678;43.852;25.952;2023-03-07T23:29:57;100264.59;;;13.39;53.04
46944;BME280;32678;43.852;25.952;2023-03-07T23:34:53;100255.19;;;13.51;47.31
46944;BME280;32678;43.852;25.952;2023-03-07T23:39:50;100258.94;;;13.47;46.71
46944;BME280;32678;43.852;25.952;2023-03-07T23:44:48;100262.28;;;13.33;48.89
46944;BME280;32678;43.852;25.952;2023-03-07T23:49:44;100265.53;;;13.38;50.65
46944;BME280;32678;43.852;25.952;2023-03-07T23:54:42;100248.34;;;12.79;52.13
46944;BME280;32678;43.852;25.952;2023-03-07T23:59:40;100246.66;;;13.13;51.94
